Stations météo

Publicité
Toulon/Ile du Levant, France (7678): Température de l'air & dewpoint: 14.08.2017 19:00:00 - 20.08.2017 19:00:00 (CEST)Toulon/Ile du Levant, France (7678): Vitesse du vent & gusts: 14.08.2017 19:00:00 - 20.08.2017 19:00:00 (CEST)Toulon/Ile du Levant, France (7678): Direction du vent: 14.08.2017 19:00:00 - 20.08.2017 19:00:00 (CEST)Toulon/Ile du Levant, France (7678): reduced air pressure: 14.08.2017 19:00:00 - 20.08.2017 19:00:00 (CEST)Toulon/Ile du Levant, France (7678): Quantités de précipitations: 14.08.2017 19:00:00 - 20.08.2017 19:00:00 (CEST)
Date & Time tt [°C] td [°C] ff [km/h] ff [knt] fx [km/h] fx [knt] dd ppp [hPa] rr [mm]
20.08.2017 19:00:00 25,3 16,4 18 10 26 14 W 1016,1 0,0
20.08.2017 18:00:00 26,3 16,5 15 8 26 14 W 1016,1 0,0
20.08.2017 17:00:00 27,2 15,2 8 4 21 11 SSW 1016,1 -
20.08.2017 16:00:00 26,1 14,5 13 7 21 11 W 1016,4 0,0
20.08.2017 15:00:00 26,2 13,3 8 4 15 8 W 1016,4 0,0
20.08.2017 14:00:00 25,0 11,9 11 6 22 12 W 1016,5 -
20.08.2017 13:00:00 24,8 12,4 16 9 26 14 W 1016,6 0,0
20.08.2017 12:00:00 25,1 14,2 13 7 18 10 W 1016,4 0,0
20.08.2017 11:00:00 25,3 10,7 8 4 13 7 WNW 1016,3 -
20.08.2017 10:00:00 23,6 10,3 11 6 22 12 WNW 1015,8 0,0
20.08.2017 09:00:00 21,9 9,4 18 10 28 15 WNW 1015,4 0,0
20.08.2017 08:00:00 20,7 7,0 24 13 42 23 WNW 1015,1 -
20.08.2017 07:00:00 20,7 5,5 35 19 57 31 WNW 1014,4 0,0
20.08.2017 06:00:00 20,6 5,8 8 4 46 25 ESE 1014,4 0,0
20.08.2017 05:00:00 21,8 6,8 28 15 52 28 WNW 1013,7 -
20.08.2017 04:00:00 21,8 6,1 11 6 44 24 W 1013,5 0,0
20.08.2017 03:00:00 22,7 6,4 24 13 50 27 WNW 1013,0 0,0
20.08.2017 02:00:00 22,9 8,2 37 20 50 27 WNW 1013,1 -
20.08.2017 01:00:00 24,2 5,0 31 17 48 26 W 1013,4 0,0
20.08.2017 00:00:00 24,9 3,5 26 14 41 22 W 1014,0 0,0
19.08.2017 23:00:00 25,6 5,7 29 16 52 28 W 1013,7 -
19.08.2017 22:00:00 25,5 8,0 26 14 44 24 W 1013,6 0,0
19.08.2017 21:00:00 23,4 12,7 22 12 52 28 W 1013,3 0,0
19.08.2017 20:00:00 24,4 12,7 37 20 61 33 W 1012,4 -
19.08.2017 19:00:00 25,8 13,3 42 23 61 33 W 1011,7 0,0
19.08.2017 18:00:00 27,1 13,1 37 20 57 31 W 1011,8 0,0
19.08.2017 17:00:00 26,4 15,1 42 23 61 33 W 1012,0 -
19.08.2017 16:00:00 25,6 15,6 42 23 59 32 W 1012,2 0,0
19.08.2017 15:00:00 26,7 16,6 35 19 52 28 W 1012,4 0,0
19.08.2017 14:00:00 26,4 16,3 35 19 54 29 W 1012,4 -
19.08.2017 13:00:00 26,3 16,8 28 15 44 24 WSW 1012,8 0,0
19.08.2017 12:00:00 26,0 17,4 22 12 39 21 W 1013,2 0,0
19.08.2017 11:00:00 25,6 16,4 24 13 44 24 W 1013,4 -
19.08.2017 10:00:00 24,8 17,8 29 16 41 22 W 1013,7 0,0
19.08.2017 09:00:00 23,8 19,5 24 13 37 20 W 1013,7 0,0
19.08.2017 08:00:00 23,0 19,8 24 13 34 18 W 1013,3 -
19.08.2017 07:00:00 22,9 19,5 22 12 29 16 W 1013,2 0,0
19.08.2017 06:00:00 22,4 21,0 18 10 29 16 W 1012,8 0,0
19.08.2017 05:00:00 22,3 21,1 16 9 24 13 W 1013,1 -
19.08.2017 04:00:00 22,4 21,0 13 7 29 16 W 1013,1 0,0
19.08.2017 03:00:00 23,1 21,0 15 8 28 15 WSW 1013,2 0,0
19.08.2017 02:00:00 24,0 19,3 15 8 24 13 WSW 1013,5 -
19.08.2017 01:00:00 23,9 17,4 16 9 34 18 W 1014,0 0,0
19.08.2017 00:00:00 24,3 17,5 24 13 35 19 WSW 1014,3 0,0
18.08.2017 23:00:00 24,6 18,5 24 13 34 18 W 1014,8 -
18.08.2017 22:00:00 23,5 19,6 22 12 39 21 W 1014,8 0,0
18.08.2017 21:00:00 24,4 18,8 28 15 41 22 W 1014,7 0,0
18.08.2017 20:00:00 24,9 19,0 28 15 39 21 W 1014,7 -
18.08.2017 19:00:00 26,1 18,5 28 15 39 21 W 1015,0 0,0
18.08.2017 18:00:00 27,2 20,5 22 12 35 19 W 1015,1 0,0
18.08.2017 17:00:00 28,4 20,4 16 9 24 13 SW 1015,1 -
18.08.2017 16:00:00 29,1 16,3 11 6 21 11 SSW 1015,5 0,0
18.08.2017 15:00:00 29,6 16,4 8 4 16 9 S 1015,8 0,0
18.08.2017 14:00:00 28,8 17,3 9 5 16 9 SE 1015,9 -
18.08.2017 13:00:00 27,8 21,1 4 2 15 8 NW 1016,5 0,0
18.08.2017 12:00:00 29,6 17,8 4 2 18 10 ESE 1016,8 0,0
18.08.2017 11:00:00 27,9 17,1 11 6 18 10 SE 1016,9 -
18.08.2017 10:00:00 28,2 16,5 9 5 16 9 E 1016,7 0,0
18.08.2017 09:00:00 28,0 15,3 8 4 11 6 E 1016,7 0,0
18.08.2017 08:00:00 23,3 18,0 0 0 11 6 N 1016,6 -
18.08.2017 07:00:00 22,4 18,4 9 5 15 8 ESE 1016,3 0,0
18.08.2017 06:00:00 22,7 16,0 5 3 11 6 SE 1016,1 0,0
18.08.2017 05:00:00 23,5 15,0 4 2 13 7 W 1016,0 -
18.08.2017 04:00:00 23,7 14,4 13 7 16 9 W 1016,0 0,0
18.08.2017 03:00:00 23,0 15,3 15 8 16 9 W 1016,2 0,0
18.08.2017 02:00:00 22,7 19,1 11 6 15 8 W 1016,5 -
18.08.2017 01:00:00 24,7 15,1 9 5 15 8 W 1016,6 0,0
18.08.2017 00:00:00 26,6 12,3 9 5 13 7 W 1016,8 0,0
17.08.2017 23:00:00 26,3 10,8 5 3 13 7 WNW 1017,1 -
17.08.2017 22:00:00 24,9 16,9 8 4 13 7 WNW 1016,9 0,0
17.08.2017 21:00:00 24,7 16,1 8 4 11 6 W 1016,7 0,0
17.08.2017 20:00:00 25,3 18,7 8 4 15 8 W 1016,4 -
17.08.2017 19:00:00 27,5 18,5 4 2 11 6 WNW 1016,4 0,0
17.08.2017 18:00:00 27,1 20,4 5 3 15 8 WNW 1016,6 0,0
17.08.2017 17:00:00 26,4 19,5 9 5 13 7 WNW 1016,8 -
17.08.2017 16:00:00 29,5 19,8 2 1 15 8 SE 1016,9 0,0
17.08.2017 15:00:00 28,4 15,7 11 6 21 11 ESE 1017,1 0,0
17.08.2017 14:00:00 27,5 20,1 13 7 24 13 ESE 1017,5 -
17.08.2017 13:00:00 27,6 18,6 15 8 24 13 ESE 1017,6 0,0
17.08.2017 12:00:00 27,4 15,7 15 8 22 12 ESE 1017,7 0,0
17.08.2017 11:00:00 28,5 14,7 16 9 26 14 E 1017,6 -
17.08.2017 10:00:00 25,8 16,6 22 12 31 17 E 1017,4 0,0
17.08.2017 09:00:00 25,0 17,5 22 12 35 19 ENE 1017,2 0,0
17.08.2017 08:00:00 23,3 17,1 22 12 29 16 ENE 1016,8 -
17.08.2017 07:00:00 21,6 19,7 16 9 21 11 ENE 1016,9 0,0
17.08.2017 06:00:00 22,1 15,7 13 7 16 9 E 1016,6 0,0
17.08.2017 05:00:00 21,1 18,3 5 3 15 8 W 1016,6 -
17.08.2017 04:00:00 22,0 15,1 11 6 18 10 W 1016,5 0,0
17.08.2017 03:00:00 20,9 18,1 16 9 24 13 W 1016,6 0,0
17.08.2017 02:00:00 21,5 18,1 21 11 28 15 W 1017,3 -
17.08.2017 01:00:00 21,5 17,5 21 11 28 15 W 1017,2 0,0
17.08.2017 00:00:00 21,8 17,2 21 11 31 17 W 1017,2 0,0
16.08.2017 23:00:00 22,1 17,0 22 12 35 19 W 1017,4 -
16.08.2017 22:00:00 22,3 16,8 29 16 39 21 W 1017,7 0,0
16.08.2017 21:00:00 22,8 16,3 28 15 41 22 W 1017,2 0,0
16.08.2017 20:00:00 24,4 14,8 22 12 35 19 W 1017,1 -
16.08.2017 19:00:00 25,1 14,8 24 13 39 21 W 1016,6 0,0
16.08.2017 18:00:00 26,2 11,9 18 10 41 22 WSW 1017,2 0,0
16.08.2017 17:00:00 27,3 11,3 21 11 34 18 W 1017,1 -
16.08.2017 16:00:00 28,6 12,5 21 11 31 17 WSW 1017,4 0,0
16.08.2017 15:00:00 28,0 13,1 18 10 29 16 W 1017,5 0,0
16.08.2017 14:00:00 29,4 11,4 21 11 29 16 W 1017,6 -
16.08.2017 13:00:00 29,3 10,4 21 11 31 17 W 1018,0 0,0
16.08.2017 12:00:00 28,0 11,9 22 12 31 17 WSW 1018,1 0,0
16.08.2017 11:00:00 27,4 14,1 21 11 31 17 W 1018,3 -
16.08.2017 10:00:00 25,9 13,4 21 11 28 15 W 1018,4 0,0
16.08.2017 09:00:00 23,0 17,0 21 11 26 14 W 1018,5 0,0
16.08.2017 08:00:00 21,7 16,9 18 10 22 12 W 1018,4 -
16.08.2017 07:00:00 21,1 16,7 15 8 21 11 W 1018,2 0,0
16.08.2017 06:00:00 20,9 16,1 15 8 22 12 WNW 1018,2 0,0
16.08.2017 05:00:00 21,2 17,0 11 6 16 9 W 1018,0 -
16.08.2017 04:00:00 22,2 15,5 13 7 18 10 W 1018,2 0,0
16.08.2017 03:00:00 22,7 10,5 11 6 16 9 W 1018,6 0,0
16.08.2017 02:00:00 22,4 13,2 5 3 22 12 W 1018,9 -
16.08.2017 01:00:00 21,7 13,6 16 9 28 15 W 1019,3 0,0
16.08.2017 00:00:00 21,7 16,4 24 13 34 18 W 1019,6 0,0
15.08.2017 23:00:00 21,5 15,8 21 11 26 14 W 1019,3 -
15.08.2017 22:00:00 21,8 12,4 13 7 24 13 WSW 1019,4 0,0
15.08.2017 21:00:00 22,1 12,9 21 11 31 17 W 1019,2 0,0
15.08.2017 20:00:00 22,6 16,4 21 11 26 14 W 1019,6 -
15.08.2017 19:00:00 25,9 14,7 11 6 18 10 W 1019,3 0,0
15.08.2017 18:00:00 26,3 15,0 11 6 18 10 S 1019,5 0,0
15.08.2017 17:00:00 26,5 14,3 9 5 15 8 SSE 1019,6 -
15.08.2017 16:00:00 26,4 9,7 8 4 22 12 SE 1019,6 0,0
15.08.2017 15:00:00 26,3 11,6 15 8 26 14 SE 1020,0 0,0
15.08.2017 14:00:00 25,5 15,8 13 7 24 13 SSE 1020,1 -
15.08.2017 13:00:00 26,6 16,8 15 8 22 12 SE 1020,3 0,0
15.08.2017 12:00:00 26,6 14,7 9 5 15 8 SE 1020,5 0,0
15.08.2017 11:00:00 25,0 15,9 5 3 11 6 W 1021,0 -
15.08.2017 10:00:00 22,6 16,6 8 4 13 7 W 1021,0 0,0
15.08.2017 09:00:00 20,9 17,3 5 3 8 4 WNW 1020,9 0,0
15.08.2017 08:00:00 - - - - - - - - -
15.08.2017 07:00:00 19,3 16,9 4 2 9 5 SW 1020,6 0,0
15.08.2017 06:00:00 20,6 18,0 8 4 11 6 ESE 1019,7 0,0
15.08.2017 05:00:00 20,6 15,8 8 4 11 6 NE 1019,9 -
15.08.2017 04:00:00 20,7 14,8 9 5 11 6 E 1020,1 0,0
15.08.2017 03:00:00 19,6 16,8 8 4 11 6 NNW 1019,8 0,0
15.08.2017 02:00:00 19,9 17,9 2 1 5 3 ENE 1020,0 -
15.08.2017 01:00:00 19,8 17,9 4 2 5 3 W 1020,2 0,0
15.08.2017 00:00:00 20,0 17,8 8 4 9 5 WNW 1020,4 0,0
14.08.2017 23:00:00 19,8 16,2 2 1 5 3 ENE 1020,3 -
14.08.2017 22:00:00 20,3 16,7 0 0 5 3 N 1020,4 0,0
14.08.2017 21:00:00 20,5 17,3 2 1 8 4 N 1020,0 0,0
14.08.2017 20:00:00 22,2 16,2 0 0 9 5 N 1019,8 -
14.08.2017 19:00:00 22,9 17,6 5 3 13 7 SE 1019,7 0,0

tt = Température de l'air
td = dewpoint
ff = Vitesse du vent
fx = gusts
dd = Direction du vent
ppp = reduced air pressure
rr = Quantités de précipitations

stations d'obs. à proximité